sensor_id;sensor_type;location;lat;lon;timestamp;pressure;altitude;pressure_sealevel;temperature;humidity
50380;BME280;37474;59.468;18.040;2023-02-21T00:01:08;98977.63;;;-3.91;100.00
50380;BME280;37474;59.468;18.040;2023-02-21T00:03:57;98977.09;;;-4.07;100.00
50380;BME280;37474;59.468;18.040;2023-02-21T00:06:42;98982.22;;;-4.10;100.00
50380;BME280;37474;59.468;18.040;2023-02-21T00:09:31;98983.47;;;-3.89;100.00
50380;BME280;37474;59.468;18.040;2023-02-21T00:12:17;98984.28;;;-3.87;100.00
50380;BME280;37474;59.468;18.040;2023-02-21T00:15:10;98990.91;;;-3.81;100.00
50380;BME280;37474;59.468;18.040;2023-02-21T00:17:55;98988.53;;;-3.87;100.00
50380;BME280;37474;59.468;18.040;2023-02-21T00:20:43;98993.44;;;-3.81;100.00
50380;BME280;37474;59.468;18.040;2023-02-21T00:23:32;99003.88;;;-3.55;100.00
50380;BME280;37474;59.468;18.040;2023-02-21T00:26:22;99010.53;;;-3.52;100.00
50380;BME280;37474;59.468;18.040;2023-02-21T00:29:07;99004.00;;;-3.62;100.00
50380;BME280;37474;59.468;18.040;2023-02-21T00:31:57;99009.06;;;-3.62;100.00
50380;BME280;37474;59.468;18.040;2023-02-21T00:34:42;99006.88;;;-3.39;100.00
50380;BME280;37474;59.468;18.040;2023-02-21T00:37:30;99010.06;;;-3.31;100.00
50380;BME280;37474;59.468;18.040;2023-02-21T00:40:17;99020.59;;;-3.12;100.00
50380;BME280;37474;59.468;18.040;2023-02-21T00:43:05;99023.84;;;-3.05;100.00
50380;BME280;37474;59.468;18.040;2023-02-21T00:45:53;99028.69;;;-3.33;100.00
50380;BME280;37474;59.468;18.040;2023-02-21T00:48:40;99036.78;;;-3.17;100.00
50380;BME280;37474;59.468;18.040;2023-02-21T00:51:28;99044.97;;;-3.06;100.00
50380;BME280;37474;59.468;18.040;2023-02-21T00:54:15;99051.66;;;-3.02;100.00
50380;BME280;37474;59.468;18.040;2023-02-21T00:57:02;99027.63;;;-3.23;100.00
50380;BME280;37474;59.468;18.040;2023-02-21T00:59:51;99052.00;;;-3.17;100.00
50380;BME280;37474;59.468;18.040;2023-02-21T01:02:38;99060.44;;;-3.17;100.00
50380;BME280;37474;59.468;18.040;2023-02-21T01:05:26;99061.25;;;-3.16;100.00
50380;BME280;37474;59.468;18.040;2023-02-21T01:08:11;99069.72;;;-3.16;100.00
50380;BME280;37474;59.468;18.040;2023-02-21T01:10:59;99078.53;;;-3.34;100.00
50380;BME280;37474;59.468;18.040;2023-02-21T01:13:46;99090.75;;;-3.12;100.00
50380;BME280;37474;59.468;18.040;2023-02-21T01:16:35;99095.63;;;-3.03;100.00
50380;BME280;37474;59.468;18.040;2023-02-21T01:19:26;99110.75;;;-2.99;100.00
50380;BME280;37474;59.468;18.040;2023-02-21T01:22:14;99116.94;;;-3.12;100.00
50380;BME280;37474;59.468;18.040;2023-02-21T01:25:01;99126.25;;;-3.12;100.00
50380;BME280;37474;59.468;18.040;2023-02-21T01:27:49;99137.38;;;-3.20;100.00
50380;BME280;37474;59.468;18.040;2023-02-21T01:30:34;99085.41;;;-3.37;100.00
50380;BME280;37474;59.468;18.040;2023-02-21T01:33:25;99142.81;;;-2.98;100.00
50380;BME280;37474;59.468;18.040;2023-02-21T01:36:11;99145.16;;;-3.27;100.00
50380;BME280;37474;59.468;18.040;2023-02-21T01:38:58;99165.56;;;-3.35;100.00
50380;BME280;37474;59.468;18.040;2023-02-21T01:41:43;99176.41;;;-3.27;100.00
50380;BME280;37474;59.468;18.040;2023-02-21T01:44:35;99179.47;;;-3.56;100.00
50380;BME280;37474;59.468;18.040;2023-02-21T01:47:20;99194.72;;;-3.57;100.00
50380;BME280;37474;59.468;18.040;2023-02-21T01:50:13;99193.63;;;-3.44;100.00
50380;BME280;37474;59.468;18.040;2023-02-21T01:53:01;99202.28;;;-3.54;100.00
50380;BME280;37474;59.468;18.040;2023-02-21T01:55:53;99199.09;;;-3.65;100.00
50380;BME280;37474;59.468;18.040;2023-02-21T01:58:39;99204.38;;;-3.31;100.00
50380;BME280;37474;59.468;18.040;2023-02-21T02:01:34;99217.78;;;-3.28;100.00
50380;BME280;37474;59.468;18.040;2023-02-21T02:04:20;99202.00;;;-3.40;100.00
50380;BME280;37474;59.468;18.040;2023-02-21T02:07:11;99225.63;;;-3.38;100.00
50380;BME280;37474;59.468;18.040;2023-02-21T02:09:57;99222.03;;;-3.28;100.00
50380;BME280;37474;59.468;18.040;2023-02-21T02:13:05;99229.63;;;-3.27;100.00
50380;BME280;37474;59.468;18.040;2023-02-21T02:15:51;99236.94;;;-3.13;100.00
50380;BME280;37474;59.468;18.040;2023-02-21T02:18:40;99241.41;;;-3.26;100.00
50380;BME280;37474;59.468;18.040;2023-02-21T02:21:41;99249.00;;;-3.24;100.00
50380;BME280;37474;59.468;18.040;2023-02-21T02:24:38;99253.19;;;-3.22;100.00
50380;BME280;37474;59.468;18.040;2023-02-21T02:27:36;99259.25;;;-3.30;100.00
50380;BME280;37474;59.468;18.040;2023-02-21T02:30:28;99220.75;;;-3.49;100.00
50380;BME280;37474;59.468;18.040;2023-02-21T02:33:37;99265.19;;;-3.31;100.00
50380;BME280;37474;59.468;18.040;2023-02-21T02:36:13;99270.28;;;-3.33;100.00
50380;BME280;37474;59.468;18.040;2023-02-21T02:38:50;99274.31;;;-3.24;100.00
50380;BME280;37474;59.468;18.040;2023-02-21T02:41:28;99277.41;;;-3.08;100.00
50380;BME280;37474;59.468;18.040;2023-02-21T02:44:13;99282.66;;;-3.16;100.00
50380;BME280;37474;59.468;18.040;2023-02-21T02:46:47;99294.53;;;-3.20;100.00
50380;BME280;37474;59.468;18.040;2023-02-21T02:49:20;99267.63;;;-3.28;100.00
50380;BME280;37474;59.468;18.040;2023-02-21T02:51:52;99283.19;;;-3.02;100.00
50380;BME280;37474;59.468;18.040;2023-02-21T02:54:22;99308.56;;;-3.02;100.00
50380;BME280;37474;59.468;18.040;2023-02-21T02:56:50;99308.97;;;-3.25;100.00
50380;BME280;37474;59.468;18.040;2023-02-21T02:59:22;99312.69;;;-2.98;100.00
50380;BME280;37474;59.468;18.040;2023-02-21T03:02:11;99307.56;;;-2.95;100.00
50380;BME280;37474;59.468;18.040;2023-02-21T03:05:17;99306.97;;;-3.07;100.00
50380;BME280;37474;59.468;18.040;2023-02-21T03:07:57;99311.19;;;-3.08;100.00
50380;BME280;37474;59.468;18.040;2023-02-21T03:10:36;99324.19;;;-3.25;100.00
50380;BME280;37474;59.468;18.040;2023-02-21T03:13:13;99284.09;;;-3.51;100.00
50380;BME280;37474;59.468;18.040;2023-02-21T03:15:47;99340.56;;;-2.96;100.00
50380;BME280;37474;59.468;18.040;2023-02-21T03:18:28;99347.09;;;-2.84;100.00
50380;BME280;37474;59.468;18.040;2023-02-21T03:21:00;99363.47;;;-3.01;100.00
50380;BME280;37474;59.468;18.040;2023-02-21T03:23:34;99374.84;;;-3.22;100.00
50380;BME280;37474;59.468;18.040;2023-02-21T03:26:07;99380.41;;;-3.03;100.00
50380;BME280;37474;59.468;18.040;2023-02-21T03:28:38;99361.50;;;-3.34;100.00
50380;BME280;37474;59.468;18.040;2023-02-21T03:31:09;99394.56;;;-3.40;100.00
50380;BME280;37474;59.468;18.040;2023-02-21T03:33:41;99398.91;;;-2.98;100.00
50380;BME280;37474;59.468;18.040;2023-02-21T03:36:13;99403.00;;;-2.90;100.00
50380;BME280;37474;59.468;18.040;2023-02-21T03:38:44;99405.81;;;-3.06;100.00
50380;BME280;37474;59.468;18.040;2023-02-21T03:41:14;99422.75;;;-3.08;100.00
50380;BME280;37474;59.468;18.040;2023-02-21T03:43:44;99431.06;;;-3.00;100.00
50380;BME280;37474;59.468;18.040;2023-02-21T03:46:14;99432.88;;;-3.08;100.00
50380;BME280;37474;59.468;18.040;2023-02-21T03:48:41;99441.75;;;-2.82;100.00
50380;BME280;37474;59.468;18.040;2023-02-21T03:51:12;99446.97;;;-2.92;100.00
50380;BME280;37474;59.468;18.040;2023-02-21T03:53:43;99446.28;;;-3.00;100.00
50380;BME280;37474;59.468;18.040;2023-02-21T03:56:11;99454.69;;;-2.98;100.00
50380;BME280;37474;59.468;18.040;2023-02-21T03:58:40;99462.88;;;-2.83;100.00
50380;BME280;37474;59.468;18.040;2023-02-21T04:01:10;99463.56;;;-2.74;100.00
50380;BME280;37474;59.468;18.040;2023-02-21T04:03:38;99460.41;;;-2.86;100.00
50380;BME280;37474;59.468;18.040;2023-02-21T04:06:08;99430.09;;;-2.93;100.00
50380;BME280;37474;59.468;18.040;2023-02-21T04:08:38;99480.06;;;-2.98;100.00
50380;BME280;37474;59.468;18.040;2023-02-21T04:11:07;99482.31;;;-2.81;100.00
50380;BME280;37474;59.468;18.040;2023-02-21T04:13:37;99486.09;;;-3.06;100.00
50380;BME280;37474;59.468;18.040;2023-02-21T04:16:07;99493.97;;;-2.72;100.00
50380;BME280;37474;59.468;18.040;2023-02-21T04:18:35;99501.59;;;-2.72;100.00
50380;BME280;37474;59.468;18.040;2023-02-21T04:21:07;99511.06;;;-2.82;100.00
50380;BME280;37474;59.468;18.040;2023-02-21T04:23:35;99522.09;;;-2.84;100.00
50380;BME280;37474;59.468;18.040;2023-02-21T04:26:03;99533.34;;;-2.99;100.00
50380;BME280;37474;59.468;18.040;2023-02-21T04:28:36;99539.59;;;-3.22;100.00
50380;BME280;37474;59.468;18.040;2023-02-21T04:31:04;99507.97;;;-3.01;100.00
50380;BME280;37474;59.468;18.040;2023-02-21T04:33:32;99548.28;;;-2.82;100.00
50380;BME280;37474;59.468;18.040;2023-02-21T04:36:02;99529.66;;;-2.81;100.00
50380;BME280;37474;59.468;18.040;2023-02-21T04:38:30;99549.78;;;-2.71;100.00
50380;BME280;37474;59.468;18.040;2023-02-21T04:40:58;99522.19;;;-2.90;100.00
50380;BME280;37474;59.468;18.040;2023-02-21T04:43:30;99568.31;;;-2.67;100.00
50380;BME280;37474;59.468;18.040;2023-02-21T04:45:59;99570.81;;;-2.64;100.00
50380;BME280;37474;59.468;18.040;2023-02-21T04:48:27;99574.09;;;-2.59;100.00
50380;BME280;37474;59.468;18.040;2023-02-21T04:50:59;99579.31;;;-2.68;100.00
50380;BME280;37474;59.468;18.040;2023-02-21T04:53:41;99591.88;;;-2.59;100.00
50380;BME280;37474;59.468;18.040;2023-02-21T04:56:13;99588.69;;;-2.72;100.00
50380;BME280;37474;59.468;18.040;2023-02-21T04:58:41;99596.22;;;-2.67;100.00
50380;BME280;37474;59.468;18.040;2023-02-21T05:01:16;99587.66;;;-2.60;100.00
50380;BME280;37474;59.468;18.040;2023-02-21T05:03:46;99611.06;;;-2.43;100.00
50380;BME280;37474;59.468;18.040;2023-02-21T05:06:21;99605.16;;;-2.43;100.00
50380;BME280;37474;59.468;18.040;2023-02-21T05:08:55;99586.16;;;-2.73;100.00
50380;BME280;37474;59.468;18.040;2023-02-21T05:11:26;99630.69;;;-2.54;100.00
50380;BME280;37474;59.468;18.040;2023-02-21T05:13:56;99638.00;;;-2.35;100.00
50380;BME280;37474;59.468;18.040;2023-02-21T05:16:25;99624.34;;;-2.28;100.00
50380;BME280;37474;59.468;18.040;2023-02-21T05:18:55;99629.84;;;-2.53;100.00
50380;BME280;37474;59.468;18.040;2023-02-21T05:21:25;99627.56;;;-2.70;100.00
50380;BME280;37474;59.468;18.040;2023-02-21T05:23:54;99611.78;;;-2.88;100.00
50380;BME280;37474;59.468;18.040;2023-02-21T05:26:26;99645.47;;;-2.80;100.00
50380;BME280;37474;59.468;18.040;2023-02-21T05:29:04;99650.41;;;-2.71;100.00
50380;BME280;37474;59.468;18.040;2023-02-21T05:31:36;99649.75;;;-2.84;100.00
50380;BME280;37474;59.468;18.040;2023-02-21T05:34:03;99662.03;;;-2.55;100.00
50380;BME280;37474;59.468;18.040;2023-02-21T05:36:33;99665.34;;;-2.53;100.00
50380;BME280;37474;59.468;18.040;2023-02-21T05:39:03;99665.91;;;-2.34;100.00
50380;BME280;37474;59.468;18.040;2023-02-21T05:41:31;99673.88;;;-2.55;100.00
50380;BME280;37474;59.468;18.040;2023-02-21T05:44:02;99643.13;;;-2.93;100.00
50380;BME280;37474;59.468;18.040;2023-02-21T05:46:34;99657.28;;;-2.79;100.00
50380;BME280;37474;59.468;18.040;2023-02-21T05:49:04;99689.88;;;-2.52;100.00
50380;BME280;37474;59.468;18.040;2023-02-21T05:51:36;99692.69;;;-2.70;100.00
50380;BME280;37474;59.468;18.040;2023-02-21T05:54:12;99697.78;;;-2.72;100.00
50380;BME280;37474;59.468;18.040;2023-02-21T05:56:43;99693.91;;;-2.40;100.00
50380;BME280;37474;59.468;18.040;2023-02-21T05:59:14;99695.50;;;-2.31;100.00
50380;BME280;37474;59.468;18.040;2023-02-21T06:01:43;99699.44;;;-2.14;100.00
50380;BME280;37474;59.468;18.040;2023-02-21T06:04:11;99700.59;;;-2.34;100.00
50380;BME280;37474;59.468;18.040;2023-02-21T06:06:43;99722.47;;;-2.26;100.00
50380;BME280;37474;59.468;18.040;2023-02-21T06:09:13;99719.72;;;-2.12;100.00
50380;BME280;37474;59.468;18.040;2023-02-21T06:11:41;99700.25;;;-2.13;100.00
50380;BME280;37474;59.468;18.040;2023-02-21T06:14:13;99728.34;;;-2.24;100.00
50380;BME280;37474;59.468;18.040;2023-02-21T06:16:45;99735.34;;;-2.36;100.00
50380;BME280;37474;59.468;18.040;2023-02-21T06:19:16;99717.75;;;-2.49;100.00
50380;BME280;37474;59.468;18.040;2023-02-21T06:21:46;99753.28;;;-2.49;100.00
50380;BME280;37474;59.468;18.040;2023-02-21T06:24:16;99754.22;;;-2.57;100.00
50380;BME280;37474;59.468;18.040;2023-02-21T06:26:44;99726.72;;;-2.86;100.00
50380;BME280;37474;59.468;18.040;2023-02-21T06:29:12;99770.28;;;-2.55;100.00
50380;BME280;37474;59.468;18.040;2023-02-21T06:31:43;99773.53;;;-2.46;100.00
50380;BME280;37474;59.468;18.040;2023-02-21T06:34:13;99782.19;;;-2.59;100.00
50380;BME280;37474;59.468;18.040;2023-02-21T06:36:46;99787.88;;;-2.45;100.00
50380;BME280;37474;59.468;18.040;2023-02-21T06:39:22;99795.28;;;-2.26;100.00
50380;BME280;37474;59.468;18.040;2023-02-21T06:41:50;99801.97;;;-2.22;100.00
50380;BME280;37474;59.468;18.040;2023-02-21T06:44:19;99818.91;;;-2.21;100.00
50380;BME280;37474;59.468;18.040;2023-02-21T06:46:52;99831.34;;;-2.04;100.00
50380;BME280;37474;59.468;18.040;2023-02-21T06:49:20;99838.09;;;-2.03;100.00
50380;BME280;37474;59.468;18.040;2023-02-21T06:51:48;99848.25;;;-2.03;100.00
50380;BME280;37474;59.468;18.040;2023-02-21T06:54:22;99857.38;;;-1.89;100.00
50380;BME280;37474;59.468;18.040;2023-02-21T06:56:50;99866.50;;;-1.77;100.00
50380;BME280;37474;59.468;18.040;2023-02-21T06:59:18;99865.56;;;-1.71;100.00
50380;BME280;37474;59.468;18.040;2023-02-21T07:01:49;99873.91;;;-1.63;100.00
50380;BME280;37474;59.468;18.040;2023-02-21T07:04:18;99889.94;;;-1.58;100.00
50380;BME280;37474;59.468;18.040;2023-02-21T07:06:46;99903.38;;;-1.50;100.00
50380;BME280;37474;59.468;18.040;2023-02-21T07:09:16;99910.09;;;-1.47;100.00
50380;BME280;37474;59.468;18.040;2023-02-21T07:11:43;99922.97;;;-1.58;100.00
50380;BME280;37474;59.468;18.040;2023-02-21T07:14:13;99939.97;;;-1.63;100.00
50380;BME280;37474;59.468;18.040;2023-02-21T07:17:05;99945.06;;;-1.63;100.00
50380;BME280;37474;59.468;18.040;2023-02-21T07:19:33;99955.97;;;-1.55;100.00
50380;BME280;37474;59.468;18.040;2023-02-21T07:22:02;99934.19;;;-1.73;100.00
50380;BME280;37474;59.468;18.040;2023-02-21T07:24:30;99978.75;;;-1.49;100.00
50380;BME280;37474;59.468;18.040;2023-02-21T07:26:58;99986.47;;;-1.55;100.00
50380;BME280;37474;59.468;18.040;2023-02-21T07:29:30;99997.50;;;-1.54;100.00
50380;BME280;37474;59.468;18.040;2023-02-21T07:31:57;100004.31;;;-1.58;100.00
50380;BME280;37474;59.468;18.040;2023-02-21T07:34:27;99987.56;;;-1.74;100.00
50380;BME280;37474;59.468;18.040;2023-02-21T07:36:57;100020.38;;;-1.54;100.00
50380;BME280;37474;59.468;18.040;2023-02-21T07:39:24;100029.50;;;-1.41;100.00
50380;BME280;37474;59.468;18.040;2023-02-21T07:41:52;100037.34;;;-1.58;100.00
50380;BME280;37474;59.468;18.040;2023-02-21T07:44:21;100048.81;;;-1.29;100.00
50380;BME280;37474;59.468;18.040;2023-02-21T07:46:52;100056.41;;;-1.28;100.00
50380;BME280;37474;59.468;18.040;2023-02-21T07:49:23;100076.75;;;-1.26;100.00
50380;BME280;37474;59.468;18.040;2023-02-21T07:51:52;100075.00;;;-1.23;100.00
50380;BME280;37474;59.468;18.040;2023-02-21T07:54:22;100082.41;;;-1.08;100.00
50380;BME280;37474;59.468;18.040;2023-02-21T07:56:51;100092.59;;;-1.08;100.00
50380;BME280;37474;59.468;18.040;2023-02-21T07:59:19;100101.94;;;-1.08;100.00
50380;BME280;37474;59.468;18.040;2023-02-21T08:01:49;100114.66;;;-1.08;100.00
50380;BME280;37474;59.468;18.040;2023-02-21T08:04:19;100099.59;;;-1.23;100.00
50380;BME280;37474;59.468;18.040;2023-02-21T08:06:48;100134.09;;;-1.02;100.00
50380;BME280;37474;59.468;18.040;2023-02-21T08:09:19;100139.31;;;-1.13;100.00
50380;BME280;37474;59.468;18.040;2023-02-21T08:11:48;100145.06;;;-0.99;100.00
50380;BME280;37474;59.468;18.040;2023-02-21T08:14:16;100127.44;;;-1.13;100.00
50380;BME280;37474;59.468;18.040;2023-02-21T08:16:43;100159.97;;;-0.74;100.00
50380;BME280;37474;59.468;18.040;2023-02-21T08:19:11;100147.50;;;-0.91;100.00
50380;BME280;37474;59.468;18.040;2023-02-21T08:21:43;100175.47;;;-0.90;100.00
50380;BME280;37474;59.468;18.040;2023-02-21T08:24:13;100184.97;;;-1.02;100.00
50380;BME280;37474;59.468;18.040;2023-02-21T08:26:47;100161.31;;;-1.09;100.00
50380;BME280;37474;59.468;18.040;2023-02-21T08:29:14;100196.50;;;-0.78;100.00
50380;BME280;37474;59.468;18.040;2023-02-21T08:31:44;100205.09;;;-0.86;100.00
50380;BME280;37474;59.468;18.040;2023-02-21T08:34:14;100206.69;;;-0.78;100.00
50380;BME280;37474;59.468;18.040;2023-02-21T08:36:42;100223.50;;;-0.65;100.00
50380;BME280;37474;59.468;18.040;2023-02-21T08:39:10;100227.56;;;-0.54;100.00
50380;BME280;37474;59.468;18.040;2023-02-21T08:41:43;100230.88;;;-0.47;100.00
50380;BME280;37474;59.468;18.040;2023-02-21T08:44:15;100235.38;;;-0.66;100.00
50380;BME280;37474;59.468;18.040;2023-02-21T08:46:46;100215.03;;;-0.67;100.00
50380;BME280;37474;59.468;18.040;2023-02-21T08:49:16;100249.72;;;-0.59;100.00
50380;BME280;37474;59.468;18.040;2023-02-21T08:51:44;100199.09;;;-0.80;100.00
50380;BME280;37474;59.468;18.040;2023-02-21T08:54:15;100268.75;;;-0.87;100.00
50380;BME280;37474;59.468;18.040;2023-02-21T08:56:45;100274.53;;;-0.74;100.00
50380;BME280;37474;59.468;18.040;2023-02-21T08:59:17;100282.84;;;-0.62;100.00
50380;BME280;37474;59.468;18.040;2023-02-21T09:01:47;100288.84;;;-0.66;100.00
50380;BME280;37474;59.468;18.040;2023-02-21T09:04:14;100299.09;;;-0.72;100.00
50380;BME280;37474;59.468;18.040;2023-02-21T09:06:49;100271.22;;;-0.81;100.00
50380;BME280;37474;59.468;18.040;2023-02-21T09:09:17;100306.63;;;-0.63;100.00
50380;BME280;37474;59.468;18.040;2023-02-21T09:11:45;100312.59;;;-0.65;100.00
50380;BME280;37474;59.468;18.040;2023-02-21T09:14:19;100289.19;;;-0.95;100.00
50380;BME280;37474;59.468;18.040;2023-02-21T09:16:47;100330.50;;;-0.73;100.00
50380;BME280;37474;59.468;18.040;2023-02-21T09:19:15;100314.31;;;-0.66;100.00
50380;BME280;37474;59.468;18.040;2023-02-21T09:21:47;100346.59;;;-0.72;100.00
50380;BME280;37474;59.468;18.040;2023-02-21T09:24:21;100355.09;;;-0.70;100.00
50380;BME280;37474;59.468;18.040;2023-02-21T09:26:54;100366.13;;;-0.71;100.00
50380;BME280;37474;59.468;18.040;2023-02-21T09:29:26;100366.13;;;-0.71;100.00
50380;BME280;37474;59.468;18.040;2023-02-21T09:32:09;100344.28;;;-0.91;100.00
50380;BME280;37474;59.468;18.040;2023-02-21T09:34:37;100383.84;;;-0.61;100.00
50380;BME280;37474;59.468;18.040;2023-02-21T09:37:05;100358.50;;;-0.71;100.00
50380;BME280;37474;59.468;18.040;2023-02-21T09:39:35;100394.44;;;-0.25;100.00
50380;BME280;37474;59.468;18.040;2023-02-21T09:42:03;100386.22;;;-0.48;100.00
50380;BME280;37474;59.468;18.040;2023-02-21T09:44:33;100388.44;;;-0.96;100.00
50380;BME280;37474;59.468;18.040;2023-02-21T09:47:04;100416.41;;;-0.93;100.00
50380;BME280;37474;59.468;18.040;2023-02-21T09:49:34;100393.50;;;-0.92;100.00
50380;BME280;37474;59.468;18.040;2023-02-21T09:52:04;100373.88;;;-0.84;100.00
50380;BME280;37474;59.468;18.040;2023-02-21T09:54:36;100395.94;;;-0.81;100.00
50380;BME280;37474;59.468;18.040;2023-02-21T09:57:11;100438.88;;;-0.49;100.00
50380;BME280;37474;59.468;18.040;2023-02-21T09:59:41;100448.00;;;-0.31;100.00
50380;BME280;37474;59.468;18.040;2023-02-21T10:02:23;100444.88;;;-0.56;100.00
50380;BME280;37474;59.468;18.040;2023-02-21T10:05:02;100459.34;;;-0.61;100.00
50380;BME280;37474;59.468;18.040;2023-02-21T10:07:39;100460.13;;;-0.53;100.00
50380;BME280;37474;59.468;18.040;2023-02-21T10:10:15;100475.09;;;-0.25;100.00
50380;BME280;37474;59.468;18.040;2023-02-21T10:12:48;100476.66;;;-0.11;100.00
50380;BME280;37474;59.468;18.040;2023-02-21T10:15:33;100482.03;;;0.33;100.00
50380;BME280;37474;59.468;18.040;2023-02-21T10:18:14;100493.13;;;0.30;100.00
50380;BME280;37474;59.468;18.040;2023-02-21T10:20:49;100501.22;;;-0.05;100.00
50380;BME280;37474;59.468;18.040;2023-02-21T10:23:22;100509.66;;;-0.02;100.00
50380;BME280;37474;59.468;18.040;2023-02-21T10:25:54;100514.09;;;-0.19;100.00
50380;BME280;37474;59.468;18.040;2023-02-21T10:28:25;100498.91;;;-0.30;100.00
50380;BME280;37474;59.468;18.040;2023-02-21T10:30:57;100515.13;;;-0.37;100.00
50380;BME280;37474;59.468;18.040;2023-02-21T10:33:28;100543.91;;;-0.29;100.00
50380;BME280;37474;59.468;18.040;2023-02-21T10:35:57;100552.28;;;-0.17;100.00
50380;BME280;37474;59.468;18.040;2023-02-21T10:38:25;100541.28;;;-0.19;100.00
50380;BME280;37474;59.468;18.040;2023-02-21T10:40:57;100516.00;;;-0.41;100.00
50380;BME280;37474;59.468;18.040;2023-02-21T10:43:31;100560.72;;;-0.12;100.00
50380;BME280;37474;59.468;18.040;2023-02-21T10:46:09;100572.66;;;-0.17;100.00
50380;BME280;37474;59.468;18.040;2023-02-21T10:48:43;100584.78;;;-0.41;100.00
50380;BME280;37474;59.468;18.040;2023-02-21T10:51:14;100593.41;;;-0.54;100.00
50380;BME280;37474;59.468;18.040;2023-02-21T10:53:46;100598.56;;;-0.63;100.00
50380;BME280;37474;59.468;18.040;2023-02-21T10:56:29;100602.81;;;-0.64;100.00
50380;BME280;37474;59.468;18.040;2023-02-21T10:59:00;100614.63;;;-0.54;100.00
50380;BME280;37474;59.468;18.040;2023-02-21T11:01:36;100622.16;;;-0.41;100.00
50380;BME280;37474;59.468;18.040;2023-02-21T11:04:06;100622.94;;;-0.36;100.00
50380;BME280;37474;59.468;18.040;2023-02-21T11:06:53;100634.66;;;-0.14;98.36
50380;BME280;37474;59.468;18.040;2023-02-21T11:09:31;100623.94;;;-0.54;99.43
50380;BME280;37474;59.468;18.040;2023-02-21T11:12:01;100633.56;;;-0.96;99.36
50380;BME280;37474;59.468;18.040;2023-02-21T11:14:31;100646.09;;;-0.68;99.29
50380;BME280;37474;59.468;18.040;2023-02-21T11:17:12;100675.53;;;-0.28;97.08
50380;BME280;37474;59.468;18.040;2023-02-21T11:19:53;100676.47;;;-0.38;95.59
50380;BME280;37474;59.468;18.040;2023-02-21T11:22:23;100690.06;;;-0.39;97.62
50380;BME280;37474;59.468;18.040;2023-02-21T11:24:59;100690.53;;;0.08;93.82
50380;BME280;37474;59.468;18.040;2023-02-21T11:27:33;100692.94;;;0.23;93.33
50380;BME280;37474;59.468;18.040;2023-02-21T11:30:13;100710.22;;;-0.13;96.89
50380;BME280;37474;59.468;18.040;2023-02-21T11:32:48;100715.47;;;-0.31;98.96
50380;BME280;37474;59.468;18.040;2023-02-21T11:35:23;100714.66;;;-0.38;99.96
50380;BME280;37474;59.468;18.040;2023-02-21T11:37:55;100715.53;;;-0.45;100.00
50380;BME280;37474;59.468;18.040;2023-02-21T11:40:42;100727.38;;;-0.32;100.00
50380;BME280;37474;59.468;18.040;2023-02-21T11:43:18;100739.28;;;-0.40;99.02
50380;BME280;37474;59.468;18.040;2023-02-21T11:46:03;100737.53;;;-0.27;98.29
50380;BME280;37474;59.468;18.040;2023-02-21T11:48:46;100730.03;;;-0.48;99.22
50380;BME280;37474;59.468;18.040;2023-02-21T11:51:30;100753.75;;;-0.42;100.00
50380;BME280;37474;59.468;18.040;2023-02-21T11:53:59;100760.47;;;-0.32;99.86
50380;BME280;37474;59.468;18.040;2023-02-21T11:56:33;100766.50;;;-0.46;99.67
50380;BME280;37474;59.468;18.040;2023-02-21T11:59:12;100740.16;;;-0.42;97.90
50380;BME280;37474;59.468;18.040;2023-02-21T12:01:49;100786.56;;;0.06;96.32
50380;BME280;37474;59.468;18.040;2023-02-21T12:04:48;100800.25;;;-0.09;95.32
50380;BME280;37474;59.468;18.040;2023-02-21T12:07:28;100792.66;;;-0.23;96.48
50380;BME280;37474;59.468;18.040;2023-02-21T12:10:13;100771.56;;;-0.42;96.27
50380;BME280;37474;59.468;18.040;2023-02-21T12:12:57;100814.97;;;-0.60;99.73
50380;BME280;37474;59.468;18.040;2023-02-21T12:15:42;100815.03;;;-0.75;100.00
50380;BME280;37474;59.468;18.040;2023-02-21T12:18:29;100817.69;;;-1.21;100.00
50380;BME280;37474;59.468;18.040;2023-02-21T12:21:18;100833.81;;;-1.30;100.00
50380;BME280;37474;59.468;18.040;2023-02-21T12:23:58;100840.63;;;-1.47;100.00
50380;BME280;37474;59.468;18.040;2023-02-21T12:26:45;100847.38;;;-1.26;100.00
50380;BME280;37474;59.468;18.040;2023-02-21T12:29:40;100855.84;;;-1.40;100.00
50380;BME280;37474;59.468;18.040;2023-02-21T12:32:39;100861.78;;;-1.18;100.00
50380;BME280;37474;59.468;18.040;2023-02-21T12:35:52;100869.44;;;-1.16;100.00
50380;BME280;37474;59.468;18.040;2023-02-21T12:38:34;100882.09;;;-0.95;100.00
50380;BME280;37474;59.468;18.040;2023-02-21T12:41:22;100846.53;;;-1.30;100.00
50380;BME280;37474;59.468;18.040;2023-02-21T12:43:58;100890.59;;;-1.02;100.00
50380;BME280;37474;59.468;18.040;2023-02-21T12:46:30;100903.31;;;-0.93;100.00
50380;BME280;37474;59.468;18.040;2023-02-21T12:49:03;100901.63;;;-1.09;100.00
50380;BME280;37474;59.468;18.040;2023-02-21T12:51:38;100894.84;;;-1.12;100.00
50380;BME280;37474;59.468;18.040;2023-02-21T12:54:13;100905.84;;;-1.02;100.00
50380;BME280;37474;59.468;18.040;2023-02-21T12:56:46;100910.09;;;-1.02;100.00
50380;BME280;37474;59.468;18.040;2023-02-21T12:59:20;100911.81;;;-1.00;100.00
50380;BME280;37474;59.468;18.040;2023-02-21T13:01:55;100921.13;;;-1.11;100.00
50380;BME280;37474;59.468;18.040;2023-02-21T13:04:41;100935.56;;;-1.09;100.00
50380;BME280;37474;59.468;18.040;2023-02-21T13:07:17;100942.34;;;-1.12;100.00
50380;BME280;37474;59.468;18.040;2023-02-21T13:09:58;100910.13;;;-1.36;100.00
50380;BME280;37474;59.468;18.040;2023-02-21T13:12:34;100953.38;;;-1.13;100.00
50380;BME280;37474;59.468;18.040;2023-02-21T13:15:09;100954.19;;;-1.28;100.00
50380;BME280;37474;59.468;18.040;2023-02-21T13:17:41;100963.53;;;-1.22;100.00
50380;BME280;37474;59.468;18.040;2023-02-21T13:20:14;100961.84;;;-1.17;100.00